Campo Grande Airport


Codes: SBCG/CGR
Name: Campo Grande Airport
City: Campo Grande
Country: Brazil
Elevation: 1833 ft.
Wikipedia:

Photos at Campo Grande Airport


   Photos courtesy of SpottingLog. You can add your own sightings and photos by signing up for a free trial today.



PT-ORC, 25-Nov-2007
© Luis Vaz

PR-OAT, 25-Nov-2007
© Luis Vaz

PR-MBH, 25-Nov-2007
© Luis Vaz

PR-GTK, 25-Nov-2007
© Luis Vaz


Weather at Campo Grande Airport


Time (UTC)DescriptionTempratureWindCloud coverageVisibilityPressureHumidity
21-Jun-2024 12:00Clear Sky22°C13 mph, NE0%10000m1014hPa40%
21-Jun-2024 15:00Clear Sky25°C13 mph, N4%10000m1014hPa34%
21-Jun-2024 18:00Few Clouds29°C11 mph, N17%10000m1011hPa26%
21-Jun-2024 21:00Few Clouds27°C7 mph, NE14%10000m1010hPa27%
22-Jun-2024 00:00Few Clouds25°C7 mph, NE12%10000m1011hPa31%
22-Jun-2024 03:00Scattered Clouds23°C7 mph, NE44%10000m1012hPa36%
22-Jun-2024 06:00Broken Clouds23°C7 mph, NE70%10000m1010hPa38%
22-Jun-2024 09:00Overcast Clouds23°C11 mph, NE100%10000m1011hPa40%
22-Jun-2024 12:00Overcast Clouds26°C13 mph, N88%10000m1013hPa34%
22-Jun-2024 15:00Broken Clouds32°C16 mph, N75%10000m1012hPa25%
22-Jun-2024 18:00Broken Clouds33°C16 mph, N77%10000m1008hPa23%
22-Jun-2024 21:00Overcast Clouds28°C4 mph, N85%10000m1008hPa29%
23-Jun-2024 00:00Broken Clouds25°C7 mph, NE80%10000m1010hPa33%
23-Jun-2024 03:00Clear Sky25°C7 mph, NE10%10000m1010hPa31%
23-Jun-2024 06:00Clear Sky24°C9 mph, NE7%10000m1010hPa33%
23-Jun-2024 09:00Clear Sky23°C9 mph, NE0%10000m1010hPa34%
23-Jun-2024 12:00Clear Sky27°C13 mph, N0%10000m1012hPa29%
23-Jun-2024 15:00Clear Sky33°C13 mph, NW0%10000m1012hPa22%
23-Jun-2024 18:00Clear Sky34°C13 mph, NW0%10000m1009hPa20%
23-Jun-2024 21:00Clear Sky29°C7 mph, N0%10000m1009hPa27%
24-Jun-2024 00:00Clear Sky26°C4 mph, N0%10000m1010hPa32%
24-Jun-2024 03:00Clear Sky25°C4 mph, N1%10000m1011hPa34%
24-Jun-2024 06:00Clear Sky25°C7 mph, NE0%10000m1011hPa34%
24-Jun-2024 09:00Clear Sky24°C7 mph, NE0%10000m1011hPa36%
24-Jun-2024 12:00Clear Sky28°C9 mph, N0%10000m1013hPa29%
24-Jun-2024 15:00Clear Sky33°C13 mph, NW0%10000m1013hPa21%
24-Jun-2024 18:00Clear Sky34°C16 mph, W0%10000m1011hPa22%
24-Jun-2024 21:00Clear Sky29°C7 mph, W2%10000m1012hPa31%
25-Jun-2024 00:00Clear Sky26°C4 mph, SW5%10000m1014hPa37%
25-Jun-2024 03:00Few Clouds24°C13 mph, S11%10000m1015hPa61%
25-Jun-2024 06:00Clear Sky19°C11 mph, S8%10000m1016hPa85%
25-Jun-2024 09:00Few Clouds17°C9 mph, SE16%10000m1016hPa92%
25-Jun-2024 12:00Scattered Clouds19°C9 mph, SE29%10000m1018hPa80%
25-Jun-2024 15:00Scattered Clouds28°C4 mph, SE44%10000m1017hPa47%
25-Jun-2024 18:00Scattered Clouds31°C2 mph, W32%10000m1013hPa35%
25-Jun-2024 21:00Clear Sky27°C9 mph, W4%10000m1013hPa46%
26-Jun-2024 00:00Clear Sky24°C4 mph, SW10%10000m1015hPa56%
26-Jun-2024 03:00Scattered Clouds22°C4 mph, SE33%10000m1015hPa62%
26-Jun-2024 06:00Few Clouds21°C7 mph, SE16%10000m1014hPa67%
26-Jun-2024 09:00Few Clouds20°C9 mph, E17%10000m1014hPa73%